Time;durP1;ratioP1;P1;durP2;ratioP2;P2;SDS_P1;SDS_P2;PMS_P1;PMS_P2;Temp;Humidity;BMP_temperature;BMP_pressure;BME280_temperature;BME280_humidity;BME280_pressure;Samples;Min_cycle;Max_cycle;Signal;HPM_P1;HPM_P2
2022/03/02 00:01:31;;;;;;;128.90;55.72;;;;;;;;;;6246394;28;20422;-65
2022/03/02 00:04:32;;;;;;;142.88;57.83;;;;;;;;;;6236500;28;20041;-65
2022/03/02 00:07:32;;;;;;;129.27;54.97;;;;;;;;;;6221425;28;20037;-65
2022/03/02 00:10:33;;;;;;;132.52;57.40;;;;;;;;;;6221699;28;20134;-65
2022/03/02 00:13:34;;;;;;;137.37;53.47;;;;;;;;;;6220716;28;20025;-65
2022/03/02 00:16:35;;;;;;;149.60;61.85;;;;;;;;;;6221572;28;20018;-65
2022/03/02 00:19:35;;;;;;;167.27;68.75;;;;;;;;;;6221440;28;20025;-65
2022/03/02 00:22:37;;;;;;;173.00;71.37;;;;;;;;;;6221129;28;20084;-65
2022/03/02 00:25:37;;;;;;;245.18;91.72;;;;;;;;;;6220655;28;20501;-65
2022/03/02 00:28:37;;;;;;;254.23;95.50;;;;;;;;;;6243096;28;20033;-65
2022/03/02 00:31:37;;;;;;;136.37;58.20;;;;;;;;;;6246143;28;20052;-65
2022/03/02 00:34:38;;;;;;;136.35;54.35;;;;;;;;;;6245203;28;20392;-65
2022/03/02 00:37:38;;;;;;;167.87;61.67;;;;;;;;;;6245204;28;20018;-65
2022/03/02 00:40:38;;;;;;;153.23;59.00;;;;;;;;;;6243367;28;20026;-65
2022/03/02 00:43:39;;;;;;;160.60;65.57;;;;;;;;;;6243455;28;20108;-65
2022/03/02 00:46:41;;;;;;;170.10;73.20;;;;;;;;;;6245162;28;20108;-65
2022/03/02 00:49:41;;;;;;;159.38;65.70;;;;;;;;;;6244173;28;20021;-65
2022/03/02 00:52:42;;;;;;;190.30;80.13;;;;;;;;;;6245047;28;20036;-65
2022/03/02 00:55:42;;;;;;;190.70;75.63;;;;;;;;;;6244152;28;20029;-65
2022/03/02 00:58:42;;;;;;;189.23;71.13;;;;;;;;;;6242574;28;20050;-65
2022/03/02 01:01:42;;;;;;;171.00;70.37;;;;;;;;;;6245031;28;20021;-65
2022/03/02 01:04:43;;;;;;;177.23;70.95;;;;;;;;;;6234743;28;20136;-65
2022/03/02 01:07:43;;;;;;;167.20;71.77;;;;;;;;;;6219917;28;20105;-65
2022/03/02 01:10:44;;;;;;;160.17;68.50;;;;;;;;;;6219756;28;20424;-65
2022/03/02 01:13:44;;;;;;;164.07;67.77;;;;;;;;;;6225506;28;20026;-65
2022/03/02 01:16:44;;;;;;;169.18;65.28;;;;;;;;;;6244364;28;20155;-65
2022/03/02 01:19:45;;;;;;;165.95;70.13;;;;;;;;;;6244221;28;20025;-65
2022/03/02 01:22:45;;;;;;;164.48;67.10;;;;;;;;;;6244216;28;20025;-65
2022/03/02 01:25:45;;;;;;;143.20;61.90;;;;;;;;;;6243422;28;20445;-65
2022/03/02 01:28:46;;;;;;;163.70;63.13;;;;;;;;;;6243884;28;20025;-65
2022/03/02 01:31:46;;;;;;;135.00;62.47;;;;;;;;;;6244518;28;20030;-65
2022/03/02 01:34:47;;;;;;;111.33;46.30;;;;;;;;;;6243766;28;20017;-65
2022/03/02 01:37:47;;;;;;;128.73;45.75;;;;;;;;;;6243172;28;20018;-65
2022/03/02 01:40:47;;;;;;;89.70;37.00;;;;;;;;;;6242520;28;20048;-65
2022/03/02 01:43:48;;;;;;;73.50;30.57;;;;;;;;;;6243217;28;20044;-64
2022/03/02 01:46:49;;;;;;;122.57;47.17;;;;;;;;;;6240089;28;20487;-64
2022/03/02 01:49:49;;;;;;;135.13;56.27;;;;;;;;;;6243385;28;20366;-64
2022/03/02 01:52:50;;;;;;;132.48;58.08;;;;;;;;;;6243326;28;20112;-64
2022/03/02 01:55:50;;;;;;;144.53;59.50;;;;;;;;;;6241987;28;20044;-64
2022/03/02 01:58:50;;;;;;;125.87;53.70;;;;;;;;;;6241699;28;20017;-64
2022/03/02 02:01:51;;;;;;;142.27;61.23;;;;;;;;;;6243670;28;20867;-64
2022/03/02 02:04:53;;;;;;;154.20;64.60;;;;;;;;;;6232006;28;20532;-64
2022/03/02 02:07:54;;;;;;;133.75;59.38;;;;;;;;;;6218485;28;20057;-64
2022/03/02 02:10:56;;;;;;;114.67;46.77;;;;;;;;;;6218626;28;20014;-64
2022/03/02 02:13:56;;;;;;;95.28;41.17;;;;;;;;;;6218437;28;20036;-64
2022/03/02 02:16:56;;;;;;;63.53;30.90;;;;;;;;;;6229082;28;20366;-64
2022/03/02 02:19:57;;;;;;;56.20;26.27;;;;;;;;;;6242751;28;20022;-65
2022/03/02 02:22:57;;;;;;;53.87;23.23;;;;;;;;;;6243155;28;20053;-64
2022/03/02 02:25:57;;;;;;;37.67;21.38;;;;;;;;;;6242594;28;20024;-64
2022/03/02 02:28:58;;;;;;;67.38;28.83;;;;;;;;;;6242338;28;20108;-65
2022/03/02 02:31:58;;;;;;;72.13;26.10;;;;;;;;;;6243054;28;20434;-65
2022/03/02 02:34:59;;;;;;;67.83;28.67;;;;;;;;;;6241575;28;20013;-65
2022/03/02 02:37:59;;;;;;;74.53;28.60;;;;;;;;;;6224066;28;20026;-65
2022/03/02 02:40:59;;;;;;;72.83;27.70;;;;;;;;;;6239146;28;20021;-65
2022/03/02 02:44:00;;;;;;;70.07;31.37;;;;;;;;;;6240886;28;20365;-65
2022/03/02 02:47:00;;;;;;;87.03;37.27;;;;;;;;;;6241782;28;20567;-64
2022/03/02 02:50:00;;;;;;;50.17;23.13;;;;;;;;;;6242401;28;20093;-64
2022/03/02 02:53:02;;;;;;;82.43;35.93;;;;;;;;;;6242774;28;20443;-64
2022/03/02 02:56:03;;;;;;;71.60;31.50;;;;;;;;;;6240078;28;20037;-64
2022/03/02 02:59:03;;;;;;;94.00;36.67;;;;;;;;;;6242779;28;20480;-64
2022/03/02 03:02:03;;;;;;;95.33;38.57;;;;;;;;;;6242413;28;20010;-64
2022/03/02 03:05:04;;;;;;;74.10;30.30;;;;;;;;;;6230030;28;20021;-65
2022/03/02 03:08:11;;;;;;;80.30;36.67;;;;;;;;;;6240649;28;20018;-65
2022/03/02 03:11:11;;;;;;;80.93;36.10;;;;;;;;;;6242419;28;20093;-65
2022/03/02 03:14:15;;;;;;;96.53;39.37;;;;;;;;;;6242408;28;20378;-65
2022/03/02 03:17:16;;;;;;;82.63;35.25;;;;;;;;;;6240808;28;20064;-65
2022/03/02 03:20:17;;;;;;;68.13;27.10;;;;;;;;;;6242202;28;20420;-65
2022/03/02 03:23:18;;;;;;;62.20;28.83;;;;;;;;;;6242252;28;20033;-65
2022/03/02 03:26:19;;;;;;;72.40;28.87;;;;;;;;;;6242036;28;20047;-65
2022/03/02 03:29:19;;;;;;;71.43;28.70;;;;;;;;;;6242091;28;20051;-65
2022/03/02 03:32:19;;;;;;;66.43;28.83;;;;;;;;;;6242561;28;20057;-65
2022/03/02 03:35:21;;;;;;;73.73;29.30;;;;;;;;;;6241646;28;20006;-65
2022/03/02 03:38:21;;;;;;;93.82;36.58;;;;;;;;;;6242479;28;20006;-65
2022/03/02 03:41:21;;;;;;;79.33;32.10;;;;;;;;;;6244863;28;20618;-65
2022/03/02 03:44:22;;;;;;;68.47;29.00;;;;;;;;;;6246064;28;20055;-65
2022/03/02 03:47:22;;;;;;;59.83;26.47;;;;;;;;;;6245283;28;20045;-65
2022/03/02 03:50:23;;;;;;;87.27;29.50;;;;;;;;;;6246410;28;20569;-65
2022/03/02 03:53:24;;;;;;;74.50;27.93;;;;;;;;;;6246092;28;20493;-65
2022/03/02 03:56:24;;;;;;;82.23;32.90;;;;;;;;;;6243841;28;20060;-65
2022/03/02 03:59:25;;;;;;;71.33;27.70;;;;;;;;;;6245887;28;20021;-65
2022/03/02 04:02:25;;;;;;;91.17;35.63;;;;;;;;;;6246394;28;20514;-65
2022/03/02 04:05:25;;;;;;;93.00;38.20;;;;;;;;;;6230238;28;20017;-65
2022/03/02 04:08:26;;;;;;;69.07;32.70;;;;;;;;;;6221605;28;20617;-65
2022/03/02 04:11:26;;;;;;;81.00;36.20;;;;;;;;;;6220954;28;20018;-65
2022/03/02 04:14:26;;;;;;;84.40;33.40;;;;;;;;;;6220690;28;20018;-65
2022/03/02 04:17:26;;;;;;;84.30;32.80;;;;;;;;;;6221344;28;20486;-65
2022/03/02 04:20:27;;;;;;;88.83;33.47;;;;;;;;;;6221370;28;20640;-65
2022/03/02 04:23:27;;;;;;;74.53;33.97;;;;;;;;;;6222363;28;20030;-65
2022/03/02 04:26:27;;;;;;;82.60;35.63;;;;;;;;;;6245607;28;20014;-65
2022/03/02 04:29:28;;;;;;;89.83;34.13;;;;;;;;;;6245288;28;20021;-65
2022/03/02 04:32:28;;;;;;;87.60;32.57;;;;;;;;;;6245662;28;20017;-65
2022/03/02 04:35:28;;;;;;;81.53;33.57;;;;;;;;;;6244886;28;20017;-65
2022/03/02 04:38:29;;;;;;;59.30;25.17;;;;;;;;;;6245194;28;20009;-65
2022/03/02 04:41:29;;;;;;;83.57;33.83;;;;;;;;;;6244897;28;20017;-65
2022/03/02 04:44:29;;;;;;;84.07;35.60;;;;;;;;;;6244939;28;20014;-65
2022/03/02 04:47:29;;;;;;;75.43;35.50;;;;;;;;;;6244883;28;20380;-65
2022/03/02 04:50:30;;;;;;;80.73;34.80;;;;;;;;;;6244784;28;20071;-65
2022/03/02 04:53:30;;;;;;;82.60;39.33;;;;;;;;;;6244989;28;20152;-65
2022/03/02 04:56:31;;;;;;;88.90;36.47;;;;;;;;;;6242267;28;20132;-65
2022/03/02 04:59:31;;;;;;;83.37;39.13;;;;;;;;;;6244700;28;20148;-65
2022/03/02 05:02:31;;;;;;;70.47;32.17;;;;;;;;;;6244742;28;20073;-65
2022/03/02 05:05:35;;;;;;;77.60;33.80;;;;;;;;;;6227930;28;20017;-65
2022/03/02 05:08:35;;;;;;;78.10;33.75;;;;;;;;;;6219834;28;20105;-65
2022/03/02 05:11:36;;;;;;;74.47;32.77;;;;;;;;;;6219958;28;20018;-65
2022/03/02 05:14:36;;;;;;;89.10;34.00;;;;;;;;;;6219487;28;20539;-65
2022/03/02 05:17:37;;;;;;;87.27;40.07;;;;;;;;;;6225593;28;20108;-65
2022/03/02 05:20:37;;;;;;;99.93;42.87;;;;;;;;;;6243758;28;20473;-65
2022/03/02 05:23:37;;;;;;;82.23;42.60;;;;;;;;;;6243068;28;20508;-65
2022/03/02 05:26:38;;;;;;;89.90;35.50;;;;;;;;;;6243721;28;20018;-65
2022/03/02 05:29:38;;;;;;;90.97;40.63;;;;;;;;;;6243619;28;20021;-65
2022/03/02 05:32:39;;;;;;;90.67;42.17;;;;;;;;;;6244141;28;20024;-65
2022/03/02 05:35:39;;;;;;;103.70;44.57;;;;;;;;;;6243041;28;20111;-65
2022/03/02 05:38:39;;;;;;;77.90;34.97;;;;;;;;;;6220894;28;20018;-65
2022/03/02 05:41:40;;;;;;;136.90;51.17;;;;;;;;;;6243768;28;20009;-65
2022/03/02 05:44:40;;;;;;;97.70;43.37;;;;;;;;;;6243406;28;20441;-65
2022/03/02 05:47:40;;;;;;;107.93;48.00;;;;;;;;;;6240519;28;20013;-65
2022/03/02 05:50:41;;;;;;;101.37;38.00;;;;;;;;;;6242707;28;20021;-65
2022/03/02 05:53:41;;;;;;;89.70;39.77;;;;;;;;;;6242634;28;20021;-65
2022/03/02 05:56:41;;;;;;;100.47;39.30;;;;;;;;;;6240851;28;20454;-65
2022/03/02 05:59:41;;;;;;;123.20;47.57;;;;;;;;;;6243162;28;20070;-65
2022/03/02 06:02:42;;;;;;;92.70;40.00;;;;;;;;;;6241321;28;20506;-65
2022/03/02 06:05:42;;;;;;;106.73;39.43;;;;;;;;;;6240321;28;20018;-65
2022/03/02 06:08:43;;;;;;;89.07;34.53;;;;;;;;;;6241575;28;20016;-65
2022/03/02 06:11:43;;;;;;;115.30;45.43;;;;;;;;;;6240985;28;20505;-65
2022/03/02 06:14:44;;;;;;;99.65;39.42;;;;;;;;;;6242038;28;20553;-65
2022/03/02 06:17:44;;;;;;;95.10;41.00;;;;;;;;;;6241882;28;20218;-65
2022/03/02 06:20:48;;;;;;;148.43;63.43;;;;;;;;;;6242444;28;20393;-66
2022/03/02 06:23:48;;;;;;;126.93;50.83;;;;;;;;;;6242631;28;20032;-66
2022/03/02 06:26:48;;;;;;;147.50;64.40;;;;;;;;;;6241899;28;20052;-64
2022/03/02 06:29:49;;;;;;;171.05;70.53;;;;;;;;;;6241597;28;20389;-64
2022/03/02 06:32:49;;;;;;;191.20;84.03;;;;;;;;;;6218158;28;20080;-63
2022/03/02 06:35:49;;;;;;;313.85;141.38;;;;;;;;;;6217989;28;20021;-64
2022/03/02 06:38:50;;;;;;;202.75;95.20;;;;;;;;;;6221752;28;20458;-64
2022/03/02 06:42:13;;;;;;;205.27;91.10;;;;;;;;;;6242825;28;20024;-63
2022/03/02 06:45:24;;;;;;;203.23;96.88;;;;;;;;;;6242364;28;20033;-63
2022/03/02 06:48:25;;;;;;;216.67;95.07;;;;;;;;;;6242850;28;20096;-63
2022/03/02 06:51:29;;;;;;;178.88;82.75;;;;;;;;;;6240128;28;20335;-63
2022/03/02 06:54:30;;;;;;;196.07;93.40;;;;;;;;;;6239899;28;20129;-64
2022/03/02 06:57:31;;;;;;;166.88;85.53;;;;;;;;;;6239390;28;20014;-64
2022/03/02 07:00:31;;;;;;;156.88;78.68;;;;;;;;;;6241283;28;20501;-64
2022/03/02 07:03:34;;;;;;;181.68;81.90;;;;;;;;;;6241177;28;20056;-64
2022/03/02 07:06:35;;;;;;;171.73;82.68;;;;;;;;;;6237701;28;20429;-65
2022/03/02 07:09:36;;;;;;;185.30;86.35;;;;;;;;;;6241312;28;20048;-65
2022/03/02 07:12:37;;;;;;;165.60;85.47;;;;;;;;;;6241157;28;20014;-65
2022/03/02 07:15:38;;;;;;;160.98;84.40;;;;;;;;;;6244617;28;20010;-65
2022/03/02 07:18:39;;;;;;;159.32;80.82;;;;;;;;;;6246317;28;20423;-66
2022/03/02 07:21:40;;;;;;;167.95;83.55;;;;;;;;;;6245305;28;20020;-66
2022/03/02 07:24:44;;;;;;;160.50;76.65;;;;;;;;;;6244491;28;20143;-66
2022/03/02 07:27:45;;;;;;;153.98;77.55;;;;;;;;;;6242627;28;20047;-66
2022/03/02 07:30:45;;;;;;;154.10;72.18;;;;;;;;;;6244302;28;20033;-66
2022/03/02 07:33:47;;;;;;;175.07;89.90;;;;;;;;;;6244269;28;20536;-66
2022/03/02 07:36:47;;;;;;;150.68;72.97;;;;;;;;;;6245526;28;20020;-66
2022/03/02 07:39:47;;;;;;;142.20;70.85;;;;;;;;;;6245260;28;20025;-67
2022/03/02 07:42:48;;;;;;;121.35;59.03;;;;;;;;;;6245601;28;20021;-67
2022/03/02 07:45:48;;;;;;;106.43;51.80;;;;;;;;;;6246136;28;20503;-67
2022/03/02 07:48:49;;;;;;;100.35;50.17;;;;;;;;;;6245171;28;20021;-66
2022/03/02 07:51:51;;;;;;;119.10;57.90;;;;;;;;;;6245445;28;20013;-66
2022/03/02 07:54:51;;;;;;;;;;;;;;;;;;6244911;28;20079;-67
2022/03/02 07:57:55;;;;;;;109.30;50.73;;;;;;;;;;6241916;28;19920;-67
2022/03/02 08:00:55;;;;;;;106.57;47.95;;;;;;;;;;6242458;28;20375;-67
2022/03/02 08:03:57;;;;;;;110.00;53.78;;;;;;;;;;6242110;28;20401;-67
2022/03/02 08:06:57;;;;;;;135.13;63.73;;;;;;;;;;6245329;28;20096;-67
2022/03/02 08:09:57;;;;;;;117.65;56.40;;;;;;;;;;6241002;28;20527;-67
2022/03/02 08:12:58;;;;;;;130.98;55.17;;;;;;;;;;6242528;28;20148;-68
2022/03/02 08:15:59;;;;;;;117.32;57.22;;;;;;;;;;6245282;28;20369;-68
2022/03/02 08:19:01;;;;;;;103.90;49.85;;;;;;;;;;6245336;28;20035;-69
2022/03/02 08:22:02;;;;;;;105.88;49.40;;;;;;;;;;6244689;28;20542;-68
2022/03/02 08:25:03;;;;;;;92.07;43.00;;;;;;;;;;6243848;28;20017;-69
2022/03/02 08:28:06;;;;;;;97.65;46.75;;;;;;;;;;6243315;28;20071;-69
2022/03/02 08:31:06;;;;;;;77.78;36.72;;;;;;;;;;6244412;28;20088;-69
2022/03/02 08:34:07;;;;;;;69.72;28.58;;;;;;;;;;6243924;28;20025;-69
2022/03/02 08:37:07;;;;;;;21.73;11.15;;;;;;;;;;6243304;28;20611;-69
2022/03/02 08:40:09;;;;;;;18.88;7.80;;;;;;;;;;6242288;28;20385;-69
2022/03/02 08:43:11;;;;;;;13.93;8.13;;;;;;;;;;6244471;28;20513;-69
2022/03/02 08:46:11;;;;;;;15.27;6.90;;;;;;;;;;6244908;28;20071;-69
2022/03/02 08:49:19;;;;;;;18.13;9.52;;;;;;;;;;6244143;28;20021;-69
2022/03/02 08:52:27;;;;;;;28.95;12.45;;;;;;;;;;6244651;28;20243;-68
2022/03/02 08:55:30;;;;;;;16.02;7.72;;;;;;;;;;6242950;28;20021;-68
2022/03/02 08:58:30;;;;;;;;;;;;;;;;;;6241624;28;20059;-68
2022/03/02 09:01:30;;;;;;;26.63;11.50;;;;;;;;;;6245773;28;19913;-68
2022/03/02 09:04:33;;;;;;;20.35;9.40;;;;;;;;;;6236158;28;20136;-68
2022/03/02 09:07:34;;;;;;;19.08;9.10;;;;;;;;;;6237914;28;20053;-68
2022/03/02 09:10:37;;;;;;;17.80;8.35;;;;;;;;;;6236603;28;20017;-68
2022/03/02 09:13:38;;;;;;;15.55;6.85;;;;;;;;;;6239615;28;21366;-69
2022/03/02 09:16:39;;;;;;;18.00;8.40;;;;;;;;;;6237760;28;20450;-69
2022/03/02 09:19:40;;;;;;;19.27;9.93;;;;;;;;;;6242264;28;20021;-69
2022/03/02 09:22:41;;;;;;;20.52;8.20;;;;;;;;;;6243620;28;20610;-69
2022/03/02 09:25:42;;;;;;;17.88;9.00;;;;;;;;;;6242488;28;20032;-69
2022/03/02 09:28:44;;;;;;;19.20;9.02;;;;;;;;;;6241081;28;20053;-69
2022/03/02 09:31:48;;;;;;;19.35;8.98;;;;;;;;;;6242652;28;20017;-69
2022/03/02 09:34:51;;;;;;;12.27;6.50;;;;;;;;;;6241707;28;20025;-69
2022/03/02 09:37:54;;;;;;;17.38;9.00;;;;;;;;;;6241882;28;20029;-69
2022/03/02 09:40:55;;;;;;;15.55;6.70;;;;;;;;;;6243370;28;20025;-69
2022/03/02 09:43:57;;;;;;;16.45;7.15;;;;;;;;;;6242481;28;20548;-69
2022/03/02 09:47:00;;;;;;;17.63;8.80;;;;;;;;;;6242382;28;20117;-69
2022/03/02 09:50:01;;;;;;;11.52;6.80;;;;;;;;;;6242898;28;20025;-69
2022/03/02 09:53:05;;;;;;;13.55;7.13;;;;;;;;;;6236232;28;20040;-69
2022/03/02 09:56:06;;;;;;;14.05;6.82;;;;;;;;;;6242318;28;20263;-69
2022/03/02 09:59:07;;;;;;;14.20;7.55;;;;;;;;;;6242892;28;20457;-69
2022/03/02 10:02:08;;;;;;;14.98;7.57;;;;;;;;;;6241515;28;20025;-69
2022/03/02 10:05:10;;;;;;;22.40;10.82;;;;;;;;;;6242337;28;20549;-69
2022/03/02 10:08:10;;;;;;;28.83;8.30;;;;;;;;;;6240723;28;20017;-69
2022/03/02 10:11:13;;;;;;;15.98;7.88;;;;;;;;;;6242707;28;20028;-69
2022/03/02 10:14:15;;;;;;;12.98;7.00;;;;;;;;;;6240144;28;20501;-69
2022/03/02 10:17:15;;;;;;;;;;;;;;;;;;6241524;28;20108;-69
2022/03/02 10:20:17;;;;;;;14.23;6.93;;;;;;;;;;6242549;28;19909;-69
2022/03/02 10:23:23;;;;;;;11.27;6.30;;;;;;;;;;6242657;28;20223;-69
2022/03/02 10:26:25;;;;;;;13.85;7.38;;;;;;;;;;6241394;28;20477;-69
2022/03/02 10:29:48;;;;;;;17.45;8.95;;;;;;;;;;6243447;28;20108;-68
2022/03/02 10:32:49;;;;;;;12.70;6.03;;;;;;;;;;6250663;28;20030;-68
2022/03/02 10:35:58;;;;;;;15.70;9.13;;;;;;;;;;6219599;28;20057;-68
2022/03/02 10:38:58;;;;;;;11.55;6.75;;;;;;;;;;6242428;28;20033;-69
2022/03/02 10:42:03;;;;;;;10.05;5.72;;;;;;;;;;6242004;28;20032;-69
2022/03/02 10:45:03;;;;;;;11.10;5.93;;;;;;;;;;6238891;28;20108;-69
2022/03/02 10:48:03;;;;;;;11.75;5.90;;;;;;;;;;6241363;28;20079;-69
2022/03/02 10:51:05;;;;;;;11.40;6.25;;;;;;;;;;6247322;28;20021;-69
2022/03/02 10:54:06;;;;;;;14.98;5.25;;;;;;;;;;6246562;28;20476;-69
2022/03/02 10:57:10;;;;;;;14.65;7.38;;;;;;;;;;6246162;28;20485;-69
2022/03/02 11:00:14;;;;;;;14.50;7.20;;;;;;;;;;6247671;28;20028;-69
2022/03/02 11:03:15;;;;;;;13.90;6.13;;;;;;;;;;6245728;28;20076;-69
2022/03/02 11:06:15;;;;;;;12.00;6.07;;;;;;;;;;6247103;28;20501;-69
2022/03/02 11:09:16;;;;;;;10.95;5.53;;;;;;;;;;6246593;28;20021;-69
2022/03/02 11:12:20;;;;;;;13.75;5.85;;;;;;;;;;6246067;28;20033;-69
2022/03/02 11:15:20;;;;;;;13.27;6.20;;;;;;;;;;6247450;28;20074;-69
2022/03/02 11:18:38;;;;;;;14.05;5.90;;;;;;;;;;6247066;28;20030;-69
2022/03/02 11:21:39;;;;;;;11.38;6.20;;;;;;;;;;6247430;28;20666;-69
2022/03/02 11:24:39;;;;;;;14.47;7.40;;;;;;;;;;6245781;28;20021;-69
2022/03/02 11:27:41;;;;;;;14.73;6.53;;;;;;;;;;6246850;28;20022;-69
2022/03/02 11:30:52;;;;;;;14.68;6.90;;;;;;;;;;6247203;28;20040;-68
2022/03/02 11:34:08;;;;;;;14.35;6.97;;;;;;;;;;6247086;28;20032;-68
2022/03/02 11:37:09;;;;;;;16.27;7.53;;;;;;;;;;6246459;28;20029;-69
2022/03/02 11:40:11;;;;;;;20.13;9.85;;;;;;;;;;6247357;28;20496;-69
2022/03/02 11:43:11;;;;;;;;;;;;;;;;;;6247474;28;20540;-69
2022/03/02 11:46:11;;;;;;;13.07;6.05;;;;;;;;;;6246074;28;19905;-69
2022/03/02 11:49:13;;;;;;;14.02;7.75;;;;;;;;;;6246567;28;20393;-69
2022/03/02 11:52:21;;;;;;;15.18;8.02;;;;;;;;;;6246585;28;20100;-69
2022/03/02 11:55:21;;;;;;;17.58;8.27;;;;;;;;;;6246429;28;20021;-69
2022/03/02 11:58:21;;;;;;;16.17;7.95;;;;;;;;;;6243433;28;20021;-69
2022/03/02 12:01:22;;;;;;;19.20;8.50;;;;;;;;;;6245320;28;20029;-69
2022/03/02 12:04:22;;;;;;;17.17;8.00;;;;;;;;;;6245198;28;20521;-69
2022/03/02 12:07:22;;;;;;;32.30;16.13;;;;;;;;;;6236552;28;20038;-69
2022/03/02 12:10:24;;;;;;;16.45;8.55;;;;;;;;;;6221834;28;20022;-69
2022/03/02 12:13:25;;;;;;;15.38;6.68;;;;;;;;;;6222307;28;20014;-69
2022/03/02 12:16:39;;;;;;;14.00;7.70;;;;;;;;;;6245883;28;20013;-69
2022/03/02 12:19:39;;;;;;;15.85;7.82;;;;;;;;;;6245958;28;20071;-69
2022/03/02 12:22:41;;;;;;;23.73;12.65;;;;;;;;;;6245945;28;20021;-69
2022/03/02 12:25:45;;;;;;;12.40;6.82;;;;;;;;;;6245858;28;20048;-69
2022/03/02 12:28:55;;;;;;;15.50;8.32;;;;;;;;;;6226633;28;20057;-69
2022/03/02 12:32:07;;;;;;;17.88;8.40;;;;;;;;;;6244667;28;20066;-69
2022/03/02 12:35:11;;;;;;;15.40;7.17;;;;;;;;;;6245836;28;20110;-69
2022/03/02 12:38:11;;;;;;;15.18;6.60;;;;;;;;;;6242459;28;20252;-69
2022/03/02 12:41:12;;;;;;;15.65;8.73;;;;;;;;;;6243878;28;20385;-69
2022/03/02 12:44:12;;;;;;;32.97;16.13;;;;;;;;;;6224005;28;20026;-69
2022/03/02 12:47:14;;;;;;;16.15;7.32;;;;;;;;;;6220597;28;20036;-69
2022/03/02 12:50:15;;;;;;;15.68;7.68;;;;;;;;;;6223921;28;20097;-69
2022/03/02 12:53:16;;;;;;;10.50;5.97;;;;;;;;;;6241508;28;20532;-69
2022/03/02 12:56:16;;;;;;;13.90;7.00;;;;;;;;;;6242614;28;20295;-69
2022/03/02 12:59:18;;;;;;;22.75;12.15;;;;;;;;;;6235307;28;20485;-69
2022/03/02 13:02:22;;;;;;;17.10;8.98;;;;;;;;;;6228403;28;20049;-69
2022/03/02 13:05:36;;;;;;;29.75;13.90;;;;;;;;;;6240162;28;20018;-69
2022/03/02 13:08:39;;;;;;;18.50;9.68;;;;;;;;;;6221444;28;20018;-69
2022/03/02 13:11:39;;;;;;;28.63;14.40;;;;;;;;;;6225304;28;20025;-69
2022/03/02 13:14:40;;;;;;;21.17;9.98;;;;;;;;;;6237998;28;20029;-69
2022/03/02 13:17:40;;;;;;;14.35;6.32;;;;;;;;;;6241171;28;20501;-69
2022/03/02 13:20:43;;;;;;;15.93;7.18;;;;;;;;;;6242268;28;20013;-69
2022/03/02 13:24:04;;;;;;;12.02;5.82;;;;;;;;;;6242611;28;20098;-69
2022/03/02 13:27:08;;;;;;;14.32;7.30;;;;;;;;;;6239438;28;20022;-69
2022/03/02 13:30:11;;;;;;;24.45;12.65;;;;;;;;;;6243671;28;20025;-69
2022/03/02 13:33:11;;;;;;;17.92;9.05;;;;;;;;;;6242488;28;20129;-69
2022/03/02 13:36:30;;;;;;;11.88;6.07;;;;;;;;;;6240208;28;20030;-69
2022/03/02 13:39:42;;;;;;;12.27;5.43;;;;;;;;;;6242613;28;20386;-69
2022/03/02 13:42:45;;;;;;;15.43;7.32;;;;;;;;;;6243130;28;20033;-69
2022/03/02 13:46:07;;;;;;;13.63;6.55;;;;;;;;;;6239369;28;20029;-69
2022/03/02 13:49:07;;;;;;;12.30;6.40;;;;;;;;;;6241899;28;20477;-69
2022/03/02 13:52:08;;;;;;;15.57;8.13;;;;;;;;;;6239383;28;20124;-69
2022/03/02 13:55:11;;;;;;;11.25;6.65;;;;;;;;;;6241782;28;20021;-69
2022/03/02 13:58:18;;;;;;;12.45;6.93;;;;;;;;;;6240073;28;20097;-69
2022/03/02 14:01:24;;;;;;;12.85;5.72;;;;;;;;;;6242577;28;20037;-70
2022/03/02 14:04:24;;;;;;;15.50;7.35;;;;;;;;;;6235506;28;20057;-69
2022/03/02 14:07:27;;;;;;;15.13;6.93;;;;;;;;;;6218810;28;20033;-69
2022/03/02 14:10:27;;;;;;;13.88;5.88;;;;;;;;;;6226687;28;20105;-69
2022/03/02 14:13:32;;;;;;;14.43;7.53;;;;;;;;;;6241055;28;20036;-70
2022/03/02 14:16:32;;;;;;;18.40;7.43;;;;;;;;;;6242780;28;20028;-70
2022/03/02 14:19:35;;;;;;;15.73;6.65;;;;;;;;;;6243154;28;20033;-69
2022/03/02 14:22:36;;;;;;;14.68;7.43;;;;;;;;;;6241852;28;20032;-70
2022/03/02 14:25:37;;;;;;;13.55;6.88;;;;;;;;;;6242499;28;20393;-70
2022/03/02 14:28:43;;;;;;;16.10;7.72;;;;;;;;;;6242568;28;20030;-69
2022/03/02 14:31:51;;;;;;;17.35;8.90;;;;;;;;;;6243389;28;20064;-70
2022/03/02 14:34:52;;;;;;;17.17;7.80;;;;;;;;;;6242196;28;20025;-69
2022/03/02 14:37:55;;;;;;;15.95;7.03;;;;;;;;;;6224652;28;20020;-69
2022/03/02 14:40:55;;;;;;;17.83;7.18;;;;;;;;;;6226563;28;20029;-69
2022/03/02 14:43:57;;;;;;;14.27;7.70;;;;;;;;;;6242038;28;20110;-69
2022/03/02 14:46:57;;;;;;;15.85;6.72;;;;;;;;;;6238552;28;20867;-69
2022/03/02 14:49:58;;;;;;;25.95;13.55;;;;;;;;;;6241616;28;20025;-69
2022/03/02 14:53:00;;;;;;;15.95;8.38;;;;;;;;;;6242270;28;20029;-69
2022/03/02 14:56:03;;;;;;;;;;;;;;;;;;6242192;28;20030;-71
2022/03/02 14:59:03;;;;;;;15.10;7.38;;;;;;;;;;6242910;28;19913;-70
2022/03/02 15:02:06;;;;;;;17.00;7.47;;;;;;;;;;6241840;28;20029;-70
2022/03/02 15:05:06;;;;;;;14.45;7.43;;;;;;;;;;6242832;28;20068;-70
2022/03/02 15:08:06;;;;;;;16.05;9.00;;;;;;;;;;6242468;28;20506;-70
2022/03/02 15:11:26;;;;;;;17.60;8.77;;;;;;;;;;6242763;28;20029;-70
2022/03/02 15:17:46;;;;;;;16.80;8.80;;;;;;;;;;6239301;28;20034;-70
2022/03/02 15:20:51;;;;;;;15.65;8.32;;;;;;;;;;6241503;28;20032;-70
2022/03/02 15:23:52;;;;;;;16.38;8.20;;;;;;;;;;6242232;28;20033;-70
2022/03/02 15:26:53;;;;;;;16.75;8.02;;;;;;;;;;6239999;28;20469;-70
2022/03/02 15:29:54;;;;;;;18.92;8.48;;;;;;;;;;6239451;28;20098;-70
2022/03/02 15:33:01;;;;;;;17.63;8.32;;;;;;;;;;6242209;28;20032;-70
2022/03/02 15:36:06;;;;;;;19.95;9.65;;;;;;;;;;6241980;28;20014;-70
2022/03/02 15:39:07;;;;;;;18.00;8.68;;;;;;;;;;6221879;28;20045;-70
2022/03/02 15:42:09;;;;;;;20.50;11.65;;;;;;;;;;6238416;28;20029;-70
2022/03/02 15:45:14;;;;;;;18.77;9.63;;;;;;;;;;6244619;28;20033;-70
2022/03/02 15:48:19;;;;;;;25.50;11.93;;;;;;;;;;6245374;28;20040;-70
2022/03/02 15:51:19;;;;;;;24.98;11.75;;;;;;;;;;6243906;28;20409;-70
2022/03/02 15:54:19;;;;;;;25.98;11.30;;;;;;;;;;6245066;28;20024;-70
2022/03/02 15:57:20;;;;;;;22.75;10.10;;;;;;;;;;6242896;28;20037;-70
2022/03/02 16:00:25;;;;;;;35.13;16.77;;;;;;;;;;6246300;28;20025;-70
2022/03/02 16:03:26;;;;;;;18.90;9.73;;;;;;;;;;6245311;28;20091;-70
2022/03/02 16:06:27;;;;;;;27.52;12.38;;;;;;;;;;6242423;28;20025;-70
2022/03/02 16:09:27;;;;;;;24.50;11.00;;;;;;;;;;6242396;28;20393;-70
2022/03/02 16:12:40;;;;;;;28.58;14.85;;;;;;;;;;6243904;28;20067;-70
2022/03/02 16:15:42;;;;;;;22.88;11.50;;;;;;;;;;6245423;28;20208;-69
2022/03/02 16:18:43;;;;;;;22.55;10.80;;;;;;;;;;6245511;28;20017;-69
2022/03/02 16:21:48;;;;;;;20.83;10.67;;;;;;;;;;6245205;28;20116;-69
2022/03/02 16:24:48;;;;;;;18.92;9.70;;;;;;;;;;6220658;28;20041;-69
2022/03/02 16:27:56;;;;;;;22.35;11.73;;;;;;;;;;6235189;28;20477;-69
2022/03/02 16:30:57;;;;;;;19.90;10.15;;;;;;;;;;6245919;28;20026;-70
2022/03/02 16:33:57;;;;;;;23.42;10.65;;;;;;;;;;6245555;28;20385;-70
2022/03/02 16:36:57;;;;;;;25.77;12.82;;;;;;;;;;6233961;28;20386;-70
2022/03/02 16:39:57;;;;;;;36.28;15.82;;;;;;;;;;6242195;28;20096;-69
2022/03/02 16:42:59;;;;;;;40.53;17.77;;;;;;;;;;6242992;28;20083;-69
2022/03/02 16:45:59;;;;;;;31.93;13.93;;;;;;;;;;6242853;28;20479;-69
2022/03/02 16:48:59;;;;;;;38.60;16.67;;;;;;;;;;6240818;28;20033;-68
2022/03/02 16:51:59;;;;;;;36.75;15.18;;;;;;;;;;6236912;28;20029;-68
2022/03/02 16:55:00;;;;;;;36.75;13.63;;;;;;;;;;6242817;28;20035;-68
2022/03/02 16:58:01;;;;;;;38.95;15.20;;;;;;;;;;6240285;28;20025;-68
2022/03/02 17:01:01;;;;;;;35.80;15.98;;;;;;;;;;6232949;28;20108;-68
2022/03/02 17:04:02;;;;;;;35.40;15.23;;;;;;;;;;6240445;28;20049;-68
2022/03/02 17:07:02;;;;;;;34.33;16.05;;;;;;;;;;6240137;28;20227;-69
2022/03/02 17:10:03;;;;;;;38.53;16.40;;;;;;;;;;6243245;28;20025;-68
2022/03/02 17:13:04;;;;;;;38.92;18.38;;;;;;;;;;6243316;28;20021;-68
2022/03/02 17:16:07;;;;;;;47.25;19.60;;;;;;;;;;6243344;28;20053;-69
2022/03/02 17:19:07;;;;;;;46.50;22.25;;;;;;;;;;6242838;28;20389;-69
2022/03/02 17:22:07;;;;;;;51.40;23.02;;;;;;;;;;6242292;28;20045;-68
2022/03/02 17:25:09;;;;;;;41.63;16.10;;;;;;;;;;6244585;28;20018;-68
2022/03/02 17:28:09;;;;;;;33.83;14.10;;;;;;;;;;6243319;28;20078;-69
2022/03/02 17:31:10;;;;;;;36.28;17.17;;;;;;;;;;6243481;28;20021;-69
2022/03/02 17:34:10;;;;;;;47.00;17.65;;;;;;;;;;6242113;28;20022;-69
2022/03/02 17:37:11;;;;;;;38.50;16.17;;;;;;;;;;6243641;28;20026;-69
2022/03/02 17:40:11;;;;;;;40.03;16.13;;;;;;;;;;6242813;28;20013;-69
2022/03/02 17:43:12;;;;;;;37.90;16.23;;;;;;;;;;6242415;28;20063;-69
2022/03/02 17:46:12;;;;;;;44.53;19.80;;;;;;;;;;6242530;28;20013;-69